UNTT/TOF METAR and TAF weather

Enter ICAO airport designator
Station Type Date Time Source
UNTT METAR 2021/04/18 01:30 UTC NOAA

UNTT 180130Z 21007MPS CAVOK 00/M10 Q1013 R21/090060 NOSIG RMK QFE744


Station Type Date Time Source
UNTT Decoded METAR 2021/04/18 01:30 UTC NOAA

Station name not available
Apr 17, 2021 - 09:30 PM EDT / 2021.04.18 0130 UTC
Wind: from the SSW (210 degrees) at 16 MPH (14 KT):0
Visibility: greater than 7 mile(s):0
Temperature: 32 F (0 C)
Windchill: 21 F (-6 C):1
Dew Point: 14 F (-10 C)
Relative Humidity: 46%
Pressure (altimeter): 29.91 in. Hg (1013 hPa)
ob: UNTT 180130Z 21007MPS CAVOK 00/M10 Q1013 R21/090060 NOSIG RMK QFE744
cycle: 1

Station Type Date Time Source
UNTT TAF UTC NOAA

Error!

Example: see airport list